sensor_id;sensor_type;location;lat;lon;timestamp;P1;durP1;ratioP1;P2;durP2;ratioP2
60999;SDS011;46879;45.658;11.814;2023-09-12T00:00:01;16.08;;;8.98;;
60999;SDS011;46879;45.658;11.814;2023-09-12T00:05:03;23.90;;;9.13;;
60999;SDS011;46879;45.658;11.814;2023-09-12T00:10:04;17.90;;;9.38;;
60999;SDS011;46879;45.658;11.814;2023-09-12T00:15:05;13.80;;;9.25;;
60999;SDS011;46879;45.658;11.814;2023-09-12T00:20:07;17.25;;;10.07;;
60999;SDS011;46879;45.658;11.814;2023-09-12T00:25:08;19.88;;;9.93;;
60999;SDS011;46879;45.658;11.814;2023-09-12T00:30:09;20.17;;;9.57;;
60999;SDS011;46879;45.658;11.814;2023-09-12T00:35:10;17.65;;;9.55;;
60999;SDS011;46879;45.658;11.814;2023-09-12T00:40:10;28.05;;;10.80;;
60999;SDS011;46879;45.658;11.814;2023-09-12T00:45:11;17.75;;;10.40;;
60999;SDS011;46879;45.658;11.814;2023-09-12T00:50:12;17.83;;;10.75;;
60999;SDS011;46879;45.658;11.814;2023-09-12T00:55:14;16.38;;;10.77;;
60999;SDS011;46879;45.658;11.814;2023-09-12T01:00:15;18.95;;;10.27;;
60999;SDS011;46879;45.658;11.814;2023-09-12T01:05:16;25.15;;;10.63;;
60999;SDS011;46879;45.658;11.814;2023-09-12T01:10:17;18.92;;;10.10;;
60999;SDS011;46879;45.658;11.814;2023-09-12T01:15:17;20.67;;;9.25;;
60999;SDS011;46879;45.658;11.814;2023-09-12T01:20:28;12.65;;;9.05;;
60999;SDS011;46879;45.658;11.814;2023-09-12T01:31:17;15.48;;;8.27;;
60999;SDS011;46879;45.658;11.814;2023-09-12T01:36:18;18.75;;;9.07;;
60999;SDS011;46879;45.658;11.814;2023-09-12T01:41:18;11.63;;;7.75;;
60999;SDS011;46879;45.658;11.814;2023-09-12T01:46:19;11.63;;;7.45;;
60999;SDS011;46879;45.658;11.814;2023-09-12T01:51:22;10.20;;;6.40;;
60999;SDS011;46879;45.658;11.814;2023-09-12T01:56:24;7.53;;;5.80;;
60999;SDS011;46879;45.658;11.814;2023-09-12T02:01:25;8.23;;;5.45;;
60999;SDS011;46879;45.658;11.814;2023-09-12T02:06:27;6.47;;;5.28;;
60999;SDS011;46879;45.658;11.814;2023-09-12T02:11:28;10.85;;;5.43;;
60999;SDS011;46879;45.658;11.814;2023-09-12T02:16:29;9.10;;;5.68;;
60999;SDS011;46879;45.658;11.814;2023-09-12T02:21:31;8.80;;;5.40;;
60999;SDS011;46879;45.658;11.814;2023-09-12T02:26:32;9.65;;;5.43;;
60999;SDS011;46879;45.658;11.814;2023-09-12T02:31:36;7.75;;;5.35;;
60999;SDS011;46879;45.658;11.814;2023-09-12T02:36:36;8.52;;;5.13;;
60999;SDS011;46879;45.658;11.814;2023-09-12T02:41:37;9.43;;;5.57;;
60999;SDS011;46879;45.658;11.814;2023-09-12T02:46:37;9.60;;;5.57;;
60999;SDS011;46879;45.658;11.814;2023-09-12T02:51:38;8.05;;;5.35;;
60999;SDS011;46879;45.658;11.814;2023-09-12T02:56:39;9.35;;;5.70;;
60999;SDS011;46879;45.658;11.814;2023-09-12T03:01:40;10.05;;;5.65;;
60999;SDS011;46879;45.658;11.814;2023-09-12T03:06:40;8.18;;;5.28;;
60999;SDS011;46879;45.658;11.814;2023-09-12T03:11:41;6.75;;;5.43;;
60999;SDS011;46879;45.658;11.814;2023-09-12T03:16:41;7.32;;;5.00;;
60999;SDS011;46879;45.658;11.814;2023-09-12T03:21:42;6.80;;;4.97;;
60999;SDS011;46879;45.658;11.814;2023-09-12T03:26:42;7.35;;;5.13;;
60999;SDS011;46879;45.658;11.814;2023-09-12T03:31:43;6.30;;;5.22;;
60999;SDS011;46879;45.658;11.814;2023-09-12T03:36:44;5.70;;;4.90;;
60999;SDS011;46879;45.658;11.814;2023-09-12T03:41:44;6.00;;;5.15;;
60999;SDS011;46879;45.658;11.814;2023-09-12T03:46:45;5.13;;;4.40;;
60999;SDS011;46879;45.658;11.814;2023-09-12T03:51:45;6.97;;;4.70;;
60999;SDS011;46879;45.658;11.814;2023-09-12T03:56:46;6.47;;;5.18;;
60999;SDS011;46879;45.658;11.814;2023-09-12T04:01:47;6.35;;;4.95;;
60999;SDS011;46879;45.658;11.814;2023-09-12T04:06:47;4.90;;;4.40;;
60999;SDS011;46879;45.658;11.814;2023-09-12T04:11:48;7.00;;;5.38;;
60999;SDS011;46879;45.658;11.814;2023-09-12T04:16:49;5.30;;;4.75;;
60999;SDS011;46879;45.658;11.814;2023-09-12T04:21:49;5.93;;;4.70;;
60999;SDS011;46879;45.658;11.814;2023-09-12T04:26:50;8.35;;;5.25;;
60999;SDS011;46879;45.658;11.814;2023-09-12T04:31:50;8.02;;;4.75;;
60999;SDS011;46879;45.658;11.814;2023-09-12T04:36:53;7.82;;;4.97;;
60999;SDS011;46879;45.658;11.814;2023-09-12T04:41:53;7.72;;;5.03;;
60999;SDS011;46879;45.658;11.814;2023-09-12T04:46:54;7.07;;;5.35;;
60999;SDS011;46879;45.658;11.814;2023-09-12T04:51:54;5.75;;;4.18;;
60999;SDS011;46879;45.658;11.814;2023-09-12T04:56:55;7.20;;;4.88;;
60999;SDS011;46879;45.658;11.814;2023-09-12T05:01:56;8.13;;;5.07;;
60999;SDS011;46879;45.658;11.814;2023-09-12T05:06:56;6.60;;;4.78;;
60999;SDS011;46879;45.658;11.814;2023-09-12T05:11:57;5.65;;;4.53;;
60999;SDS011;46879;45.658;11.814;2023-09-12T05:16:57;5.53;;;4.85;;
60999;SDS011;46879;45.658;11.814;2023-09-12T05:21:58;6.72;;;5.10;;
60999;SDS011;46879;45.658;11.814;2023-09-12T05:26:58;6.93;;;4.88;;
60999;SDS011;46879;45.658;11.814;2023-09-12T05:31:59;5.95;;;5.18;;
60999;SDS011;46879;45.658;11.814;2023-09-12T05:37:00;11.45;;;4.90;;
60999;SDS011;46879;45.658;11.814;2023-09-12T05:42:00;6.07;;;5.00;;
60999;SDS011;46879;45.658;11.814;2023-09-12T05:47:01;6.57;;;4.82;;
60999;SDS011;46879;45.658;11.814;2023-09-12T05:52:02;5.15;;;4.40;;
60999;SDS011;46879;45.658;11.814;2023-09-12T05:57:03;6.40;;;4.70;;
60999;SDS011;46879;45.658;11.814;2023-09-12T06:02:05;5.97;;;4.82;;
60999;SDS011;46879;45.658;11.814;2023-09-12T06:07:06;10.38;;;5.57;;
60999;SDS011;46879;45.658;11.814;2023-09-12T06:12:06;13.60;;;5.70;;
60999;SDS011;46879;45.658;11.814;2023-09-12T06:17:07;14.82;;;5.95;;
60999;SDS011;46879;45.658;11.814;2023-09-12T06:22:08;12.68;;;5.95;;
60999;SDS011;46879;45.658;11.814;2023-09-12T06:27:09;18.38;;;5.80;;
60999;SDS011;46879;45.658;11.814;2023-09-12T06:32:12;10.88;;;5.90;;
60999;SDS011;46879;45.658;11.814;2023-09-12T06:37:13;13.73;;;6.25;;
60999;SDS011;46879;45.658;11.814;2023-09-12T06:42:13;11.95;;;5.90;;
60999;SDS011;46879;45.658;11.814;2023-09-12T06:47:14;14.05;;;6.07;;
60999;SDS011;46879;45.658;11.814;2023-09-12T06:52:15;10.55;;;5.25;;
60999;SDS011;46879;45.658;11.814;2023-09-12T06:57:15;9.43;;;5.57;;
60999;SDS011;46879;45.658;11.814;2023-09-12T07:02:16;11.02;;;5.28;;
60999;SDS011;46879;45.658;11.814;2023-09-12T07:07:18;11.05;;;5.47;;
60999;SDS011;46879;45.658;11.814;2023-09-12T07:12:20;12.80;;;5.68;;
60999;SDS011;46879;45.658;11.814;2023-09-12T07:17:21;12.30;;;5.40;;
60999;SDS011;46879;45.658;11.814;2023-09-12T07:22:21;8.05;;;5.40;;
60999;SDS011;46879;45.658;11.814;2023-09-12T07:27:22;7.15;;;5.07;;
60999;SDS011;46879;45.658;11.814;2023-09-12T07:32:23;8.65;;;5.95;;
60999;SDS011;46879;45.658;11.814;2023-09-12T07:37:24;8.50;;;5.07;;
60999;SDS011;46879;45.658;11.814;2023-09-12T07:42:24;8.45;;;5.18;;
60999;SDS011;46879;45.658;11.814;2023-09-12T07:47:25;7.00;;;5.22;;
60999;SDS011;46879;45.658;11.814;2023-09-12T07:52:26;8.02;;;5.63;;
60999;SDS011;46879;45.658;11.814;2023-09-12T07:57:27;5.45;;;4.32;;
60999;SDS011;46879;45.658;11.814;2023-09-12T08:02:29;8.60;;;5.70;;
60999;SDS011;46879;45.658;11.814;2023-09-12T08:07:29;9.40;;;5.38;;
60999;SDS011;46879;45.658;11.814;2023-09-12T08:12:30;6.50;;;4.80;;
60999;SDS011;46879;45.658;11.814;2023-09-12T08:17:31;9.00;;;5.10;;
60999;SDS011;46879;45.658;11.814;2023-09-12T08:22:32;6.00;;;4.72;;
60999;SDS011;46879;45.658;11.814;2023-09-12T08:27:32;7.93;;;5.25;;
60999;SDS011;46879;45.658;11.814;2023-09-12T08:32:33;6.60;;;4.32;;
60999;SDS011;46879;45.658;11.814;2023-09-12T08:37:33;6.88;;;5.05;;
60999;SDS011;46879;45.658;11.814;2023-09-12T08:42:44;7.60;;;5.30;;
60999;SDS011;46879;45.658;11.814;2023-09-12T08:47:45;7.97;;;4.85;;
60999;SDS011;46879;45.658;11.814;2023-09-12T08:52:51;7.05;;;4.38;;
60999;SDS011;46879;45.658;11.814;2023-09-12T08:57:52;8.15;;;5.38;;
60999;SDS011;46879;45.658;11.814;2023-09-12T09:02:55;5.63;;;4.40;;
60999;SDS011;46879;45.658;11.814;2023-09-12T09:07:56;8.55;;;4.53;;
60999;SDS011;46879;45.658;11.814;2023-09-12T09:12:58;5.60;;;4.55;;
60999;SDS011;46879;45.658;11.814;2023-09-12T09:17:58;5.70;;;4.65;;
60999;SDS011;46879;45.658;11.814;2023-09-12T09:23:04;6.25;;;4.47;;
60999;SDS011;46879;45.658;11.814;2023-09-12T09:28:18;7.45;;;4.95;;
60999;SDS011;46879;45.658;11.814;2023-09-12T09:33:20;8.63;;;4.80;;
60999;SDS011;46879;45.658;11.814;2023-09-12T09:38:22;7.72;;;4.80;;
60999;SDS011;46879;45.658;11.814;2023-09-12T09:43:23;5.60;;;4.78;;
60999;SDS011;46879;45.658;11.814;2023-09-12T09:48:25;6.90;;;4.45;;
60999;SDS011;46879;45.658;11.814;2023-09-12T09:53:31;7.57;;;4.57;;
60999;SDS011;46879;45.658;11.814;2023-09-12T09:58:46;4.97;;;4.45;;
60999;SDS011;46879;45.658;11.814;2023-09-12T10:03:49;8.57;;;4.60;;
60999;SDS011;46879;45.658;11.814;2023-09-12T10:08:51;6.57;;;4.80;;
60999;SDS011;46879;45.658;11.814;2023-09-12T10:13:54;5.38;;;4.57;;
60999;SDS011;46879;45.658;11.814;2023-09-12T10:24:11;5.32;;;4.65;;
60999;SDS011;46879;45.658;11.814;2023-09-12T10:29:12;5.22;;;4.70;;
60999;SDS011;46879;45.658;11.814;2023-09-12T10:34:15;8.32;;;4.95;;
60999;SDS011;46879;45.658;11.814;2023-09-12T10:39:16;6.90;;;4.65;;
60999;SDS011;46879;45.658;11.814;2023-09-12T10:44:19;7.50;;;4.90;;
60999;SDS011;46879;45.658;11.814;2023-09-12T10:49:21;5.97;;;4.80;;
60999;SDS011;46879;45.658;11.814;2023-09-12T10:54:26;6.63;;;4.80;;
60999;SDS011;46879;45.658;11.814;2023-09-12T11:04:59;6.03;;;4.70;;
60999;SDS011;46879;45.658;11.814;2023-09-12T11:15:19;4.85;;;4.35;;
60999;SDS011;46879;45.658;11.814;2023-09-12T11:20:23;6.80;;;4.97;;
60999;SDS011;46879;45.658;11.814;2023-09-12T11:25:25;6.40;;;4.80;;
60999;SDS011;46879;45.658;11.814;2023-09-12T11:30:26;9.15;;;5.07;;
60999;SDS011;46879;45.658;11.814;2023-09-12T11:35:35;6.25;;;4.57;;
60999;SDS011;46879;45.658;11.814;2023-09-12T11:45:38;5.63;;;4.70;;
60999;SDS011;46879;45.658;11.814;2023-09-12T11:50:48;6.70;;;4.93;;
60999;SDS011;46879;45.658;11.814;2023-09-12T11:55:54;5.90;;;4.75;;
60999;SDS011;46879;45.658;11.814;2023-09-12T12:00:58;8.00;;;5.15;;
60999;SDS011;46879;45.658;11.814;2023-09-12T12:05:59;7.50;;;5.72;;
60999;SDS011;46879;45.658;11.814;2023-09-12T12:10:59;10.57;;;6.18;;
60999;SDS011;46879;45.658;11.814;2023-09-12T12:16:00;9.02;;;6.50;;
60999;SDS011;46879;45.658;11.814;2023-09-12T12:21:14;9.85;;;6.80;;
60999;SDS011;46879;45.658;11.814;2023-09-12T12:26:14;9.93;;;7.55;;
60999;SDS011;46879;45.658;11.814;2023-09-12T12:31:15;11.65;;;7.72;;
60999;SDS011;46879;45.658;11.814;2023-09-12T12:36:16;8.65;;;6.90;;
60999;SDS011;46879;45.658;11.814;2023-09-12T12:41:17;10.80;;;7.82;;
60999;SDS011;46879;45.658;11.814;2023-09-12T12:46:24;9.45;;;7.65;;
60999;SDS011;46879;45.658;11.814;2023-09-12T12:51:25;11.05;;;7.68;;
60999;SDS011;46879;45.658;11.814;2023-09-12T12:56:27;17.55;;;8.05;;
60999;SDS011;46879;45.658;11.814;2023-09-12T13:01:28;12.80;;;7.65;;
60999;SDS011;46879;45.658;11.814;2023-09-12T13:06:30;8.88;;;7.20;;
60999;SDS011;46879;45.658;11.814;2023-09-12T13:11:35;13.30;;;6.78;;
60999;SDS011;46879;45.658;11.814;2023-09-12T13:16:36;15.48;;;7.82;;
60999;SDS011;46879;45.658;11.814;2023-09-12T13:21:39;10.20;;;7.55;;
60999;SDS011;46879;45.658;11.814;2023-09-12T13:26:39;12.10;;;8.10;;
60999;SDS011;46879;45.658;11.814;2023-09-12T13:31:40;13.23;;;7.65;;
60999;SDS011;46879;45.658;11.814;2023-09-12T13:36:41;14.57;;;7.65;;
60999;SDS011;46879;45.658;11.814;2023-09-12T13:41:42;18.60;;;7.82;;
60999;SDS011;46879;45.658;11.814;2023-09-12T13:46:43;11.55;;;7.97;;
60999;SDS011;46879;45.658;11.814;2023-09-12T13:51:47;14.63;;;7.20;;
60999;SDS011;46879;45.658;11.814;2023-09-12T13:56:48;12.80;;;7.55;;
60999;SDS011;46879;45.658;11.814;2023-09-12T14:01:48;12.43;;;7.50;;
60999;SDS011;46879;45.658;11.814;2023-09-12T14:06:49;9.07;;;7.65;;
60999;SDS011;46879;45.658;11.814;2023-09-12T14:11:49;10.90;;;7.20;;
60999;SDS011;46879;45.658;11.814;2023-09-12T14:16:50;15.07;;;7.32;;
60999;SDS011;46879;45.658;11.814;2023-09-12T14:21:50;14.40;;;6.75;;
60999;SDS011;46879;45.658;11.814;2023-09-12T14:26:51;11.07;;;7.03;;
60999;SDS011;46879;45.658;11.814;2023-09-12T14:31:51;9.07;;;7.30;;
60999;SDS011;46879;45.658;11.814;2023-09-12T14:36:57;9.73;;;7.38;;
60999;SDS011;46879;45.658;11.814;2023-09-12T14:41:58;10.15;;;7.38;;
60999;SDS011;46879;45.658;11.814;2023-09-12T14:46:59;14.65;;;7.63;;
60999;SDS011;46879;45.658;11.814;2023-09-12T14:52:00;11.43;;;7.30;;
60999;SDS011;46879;45.658;11.814;2023-09-12T14:57:00;12.23;;;7.60;;
60999;SDS011;46879;45.658;11.814;2023-09-12T15:02:01;10.57;;;7.28;;
60999;SDS011;46879;45.658;11.814;2023-09-12T15:07:01;13.40;;;7.63;;
60999;SDS011;46879;45.658;11.814;2023-09-12T15:12:02;11.63;;;7.93;;
60999;SDS011;46879;45.658;11.814;2023-09-12T15:17:03;11.77;;;7.68;;
60999;SDS011;46879;45.658;11.814;2023-09-12T15:22:04;10.55;;;7.30;;
60999;SDS011;46879;45.658;11.814;2023-09-12T15:27:04;11.65;;;7.60;;
60999;SDS011;46879;45.658;11.814;2023-09-12T15:32:05;12.40;;;8.15;;
60999;SDS011;46879;45.658;11.814;2023-09-12T15:37:06;9.85;;;7.22;;
60999;SDS011;46879;45.658;11.814;2023-09-12T15:42:12;9.98;;;7.85;;
60999;SDS011;46879;45.658;11.814;2023-09-12T15:47:12;13.32;;;8.02;;
60999;SDS011;46879;45.658;11.814;2023-09-12T15:52:13;11.25;;;7.10;;
60999;SDS011;46879;45.658;11.814;2023-09-12T15:57:14;12.15;;;9.15;;
60999;SDS011;46879;45.658;11.814;2023-09-12T16:02:15;17.02;;;7.80;;
60999;SDS011;46879;45.658;11.814;2023-09-12T16:07:17;14.23;;;8.02;;
60999;SDS011;46879;45.658;11.814;2023-09-12T16:12:18;16.80;;;8.00;;
60999;SDS011;46879;45.658;11.814;2023-09-12T16:17:18;14.73;;;7.90;;
60999;SDS011;46879;45.658;11.814;2023-09-12T16:22:19;13.63;;;8.52;;
60999;SDS011;46879;45.658;11.814;2023-09-12T16:27:20;13.30;;;8.10;;
60999;SDS011;46879;45.658;11.814;2023-09-12T16:32:22;9.80;;;7.60;;
60999;SDS011;46879;45.658;11.814;2023-09-12T16:37:23;14.02;;;8.00;;
60999;SDS011;46879;45.658;11.814;2023-09-12T16:42:24;11.63;;;7.55;;
60999;SDS011;46879;45.658;11.814;2023-09-12T16:47:26;8.52;;;7.55;;
60999;SDS011;46879;45.658;11.814;2023-09-12T16:52:27;10.18;;;7.53;;
60999;SDS011;46879;45.658;11.814;2023-09-12T16:57:30;10.73;;;7.82;;
60999;SDS011;46879;45.658;11.814;2023-09-12T17:02:30;8.73;;;6.93;;
60999;SDS011;46879;45.658;11.814;2023-09-12T17:07:35;8.50;;;7.20;;
60999;SDS011;46879;45.658;11.814;2023-09-12T17:12:35;10.18;;;7.53;;
60999;SDS011;46879;45.658;11.814;2023-09-12T17:17:36;8.07;;;6.75;;
60999;SDS011;46879;45.658;11.814;2023-09-12T17:22:37;9.68;;;7.07;;
60999;SDS011;46879;45.658;11.814;2023-09-12T17:27:39;12.48;;;7.15;;
60999;SDS011;46879;45.658;11.814;2023-09-12T17:32:40;9.15;;;7.50;;
60999;SDS011;46879;45.658;11.814;2023-09-12T17:37:41;10.07;;;7.78;;
60999;SDS011;46879;45.658;11.814;2023-09-12T17:42:41;11.57;;;7.68;;
60999;SDS011;46879;45.658;11.814;2023-09-12T17:47:42;8.77;;;7.80;;
60999;SDS011;46879;45.658;11.814;2023-09-12T17:52:43;11.20;;;7.85;;
60999;SDS011;46879;45.658;11.814;2023-09-12T17:57:43;12.68;;;8.52;;
60999;SDS011;46879;45.658;11.814;2023-09-12T18:02:44;10.95;;;7.55;;
60999;SDS011;46879;45.658;11.814;2023-09-12T18:07:44;9.93;;;7.82;;
60999;SDS011;46879;45.658;11.814;2023-09-12T18:12:45;11.50;;;7.13;;
60999;SDS011;46879;45.658;11.814;2023-09-12T18:17:45;12.15;;;7.40;;
60999;SDS011;46879;45.658;11.814;2023-09-12T18:22:46;10.02;;;6.88;;
60999;SDS011;46879;45.658;11.814;2023-09-12T18:27:46;8.48;;;6.68;;
60999;SDS011;46879;45.658;11.814;2023-09-12T18:32:47;10.95;;;7.13;;
60999;SDS011;46879;45.658;11.814;2023-09-12T18:37:48;8.30;;;6.60;;
60999;SDS011;46879;45.658;11.814;2023-09-12T18:42:49;9.27;;;6.80;;
60999;SDS011;46879;45.658;11.814;2023-09-12T18:47:49;7.97;;;6.28;;
60999;SDS011;46879;45.658;11.814;2023-09-12T18:52:50;9.02;;;6.40;;
60999;SDS011;46879;45.658;11.814;2023-09-12T18:57:50;10.77;;;6.78;;
60999;SDS011;46879;45.658;11.814;2023-09-12T19:02:51;14.02;;;5.80;;
60999;SDS011;46879;45.658;11.814;2023-09-12T19:07:53;10.18;;;6.10;;
60999;SDS011;46879;45.658;11.814;2023-09-12T19:12:54;7.22;;;6.50;;
60999;SDS011;46879;45.658;11.814;2023-09-12T19:17:54;13.52;;;6.28;;
60999;SDS011;46879;45.658;11.814;2023-09-12T19:22:55;8.98;;;6.25;;
60999;SDS011;46879;45.658;11.814;2023-09-12T19:27:56;9.55;;;6.43;;
60999;SDS011;46879;45.658;11.814;2023-09-12T19:32:57;10.10;;;6.43;;
60999;SDS011;46879;45.658;11.814;2023-09-12T19:37:58;8.38;;;6.45;;
60999;SDS011;46879;45.658;11.814;2023-09-12T19:43:01;9.85;;;5.60;;
60999;SDS011;46879;45.658;11.814;2023-09-12T19:48:03;6.63;;;5.93;;
60999;SDS011;46879;45.658;11.814;2023-09-12T19:53:08;7.22;;;5.95;;
60999;SDS011;46879;45.658;11.814;2023-09-12T19:58:09;12.30;;;6.32;;
60999;SDS011;46879;45.658;11.814;2023-09-12T20:03:10;10.90;;;6.68;;
60999;SDS011;46879;45.658;11.814;2023-09-12T20:08:11;7.32;;;5.68;;
60999;SDS011;46879;45.658;11.814;2023-09-12T20:13:14;7.10;;;6.03;;
60999;SDS011;46879;45.658;11.814;2023-09-12T20:18:15;11.05;;;5.75;;
60999;SDS011;46879;45.658;11.814;2023-09-12T20:23:15;9.52;;;5.90;;
60999;SDS011;46879;45.658;11.814;2023-09-12T20:28:16;6.78;;;5.50;;
60999;SDS011;46879;45.658;11.814;2023-09-12T20:33:17;8.25;;;6.10;;
60999;SDS011;46879;45.658;11.814;2023-09-12T20:38:18;8.50;;;5.88;;
60999;SDS011;46879;45.658;11.814;2023-09-12T20:43:19;8.52;;;5.63;;
60999;SDS011;46879;45.658;11.814;2023-09-12T20:48:20;7.60;;;6.00;;
60999;SDS011;46879;45.658;11.814;2023-09-12T20:53:20;11.75;;;5.70;;
60999;SDS011;46879;45.658;11.814;2023-09-12T20:58:21;7.22;;;6.18;;
60999;SDS011;46879;45.658;11.814;2023-09-12T21:03:22;6.28;;;5.28;;
60999;SDS011;46879;45.658;11.814;2023-09-12T21:08:22;6.60;;;5.90;;
60999;SDS011;46879;45.658;11.814;2023-09-12T21:13:23;6.97;;;5.35;;
60999;SDS011;46879;45.658;11.814;2023-09-12T21:18:24;8.63;;;5.93;;
60999;SDS011;46879;45.658;11.814;2023-09-12T21:23:24;7.65;;;5.28;;
60999;SDS011;46879;45.658;11.814;2023-09-12T21:28:25;9.95;;;5.68;;
60999;SDS011;46879;45.658;11.814;2023-09-12T21:33:25;6.20;;;5.57;;
60999;SDS011;46879;45.658;11.814;2023-09-12T21:38:26;7.18;;;5.55;;
60999;SDS011;46879;45.658;11.814;2023-09-12T21:43:27;6.63;;;5.70;;
60999;SDS011;46879;45.658;11.814;2023-09-12T21:48:28;6.85;;;5.68;;
60999;SDS011;46879;45.658;11.814;2023-09-12T21:53:28;7.32;;;5.95;;
60999;SDS011;46879;45.658;11.814;2023-09-12T21:58:30;7.32;;;6.07;;
60999;SDS011;46879;45.658;11.814;2023-09-12T22:03:30;7.15;;;6.20;;
60999;SDS011;46879;45.658;11.814;2023-09-12T22:08:31;6.30;;;5.35;;
60999;SDS011;46879;45.658;11.814;2023-09-12T22:13:31;7.07;;;5.70;;
60999;SDS011;46879;45.658;11.814;2023-09-12T22:18:32;6.22;;;5.63;;
60999;SDS011;46879;45.658;11.814;2023-09-12T22:23:33;6.82;;;5.55;;
60999;SDS011;46879;45.658;11.814;2023-09-12T22:28:34;9.90;;;6.00;;
60999;SDS011;46879;45.658;11.814;2023-09-12T22:33:34;7.32;;;5.97;;
60999;SDS011;46879;45.658;11.814;2023-09-12T22:38:35;13.13;;;5.90;;
60999;SDS011;46879;45.658;11.814;2023-09-12T22:43:36;10.88;;;5.95;;
60999;SDS011;46879;45.658;11.814;2023-09-12T22:48:37;9.18;;;6.28;;
60999;SDS011;46879;45.658;11.814;2023-09-12T22:53:37;10.50;;;6.20;;
60999;SDS011;46879;45.658;11.814;2023-09-12T22:58:40;9.15;;;6.53;;
60999;SDS011;46879;45.658;11.814;2023-09-12T23:03:40;9.05;;;5.72;;
60999;SDS011;46879;45.658;11.814;2023-09-12T23:08:41;8.02;;;5.63;;
60999;SDS011;46879;45.658;11.814;2023-09-12T23:13:42;11.15;;;6.15;;
60999;SDS011;46879;45.658;11.814;2023-09-12T23:18:42;7.65;;;5.57;;
60999;SDS011;46879;45.658;11.814;2023-09-12T23:23:43;9.77;;;5.93;;
60999;SDS011;46879;45.658;11.814;2023-09-12T23:28:43;8.90;;;5.90;;
60999;SDS011;46879;45.658;11.814;2023-09-12T23:33:44;9.43;;;6.35;;
60999;SDS011;46879;45.658;11.814;2023-09-12T23:38:45;7.18;;;5.55;;
60999;SDS011;46879;45.658;11.814;2023-09-12T23:43:45;6.90;;;6.03;;
60999;SDS011;46879;45.658;11.814;2023-09-12T23:48:46;13.00;;;6.72;;
60999;SDS011;46879;45.658;11.814;2023-09-12T23:53:46;7.40;;;5.93;;
60999;SDS011;46879;45.658;11.814;2023-09-12T23:58:47;10.20;;;5.82;;
